Austwell, Texas
Current Conditions -  °F | °C
As of 7:35 PM on Monday 20 Oct 2014 (Local Time) from KPKV Reporting Station
Scattered Clouds Scattered Clouds  
Wind Chill: 76°   Ceiling: Unl
Heat Index: 78°   Visibility: 10mi
Dew Point: 69°   Wind: 8mph
Humidity: 78%   Direction: 100°E
Pressure: 29.98"   Gusts: NA
Location:  28.39°N, 96.84°W
Report Text: KPKV 210035Z AUTO 10007KT 10SM SCT041 25/21 A2998 RMK AO2 T02460205
Loading
Personal Weather Stations






























Interactive Weather Map New forecast layout! Learn more

10-Day Weather Forecast

Advertisements
Track Severe Weather on mobile